Overview Statistics Trail Chart Weather Telemetry Raw packets
 

This is the latest recevied weather packets stored in our database for station/object DH8TOM-3. If no packets are shown the sender has not sent any weather packets the latest 10 day(s).

<< 104 105 106 107 108 109 110 >>
Time Temp. Humidity Pressure Rain* Wind** Luminosity Snow
1787816948 19.44° C 73% 1016.6 hPa 0 mm - - -
1787816648 18.33° C 75% 1016.8 hPa 0 mm - - -
1787816346 18.33° C 75% 1016.8 hPa 0 mm - - -
1787816046 17.22° C 80% 1016.8 hPa 0 mm - - -
1787815744 17.22° C 80% 1016.8 hPa 0 mm - - -
1787815443 16.67° C 79% 1016.8 hPa 0 mm - - -
1787815142 16.67° C 79% 1016.8 hPa 0 mm - - -
1787814841 16.67° C 80% 1017 hPa 0 mm - - -
1787814540 16.67° C 80% 1017 hPa 0 mm - - -
1787814239 16.11° C 78% 1016.7 hPa 0 mm - - -
1787813938 16.11° C 78% 1016.7 hPa 0 mm - - -
1787813639 16.11° C 81% 1016.8 hPa 0 mm - - -
1787813336 16.11° C 81% 1016.8 hPa 0 mm - - -
1787813035 16.11° C 79% 1016.7 hPa 0 mm - - -
1787812734 16.11° C 79% 1016.7 hPa 0 mm - - -
1787812434 15.56° C 80% 1016.7 hPa 0 mm - - -
1787812132 15.56° C 80% 1016.7 hPa 0 mm - - -
1787811831 15.56° C 81% 1016.7 hPa 0 mm - - -
1787811530 15.56° C 81% 1016.7 hPa 0 mm - - -
1787811232 15.56° C 80% 1016.5 hPa 0 mm - - -
1787810928 15.56° C 80% 1016.5 hPa 0 mm - - -
1787810627 15.56° C 81% 1016.5 hPa 0 mm - - -
1787810327 15.56° C 81% 1016.5 hPa 0 mm - - -
1787810025 15° C 81% 1016.5 hPa 0 mm - - -
1787809724 15° C 81% 1016.5 hPa 0 mm - - -

* Rain latest hour (hover to see other rain measurements)
** Current wind speed in m/s (hover to see current wind gust speed)